sensor_id;sensor_type;location;lat;lon;timestamp;P1;durP1;ratioP1;P2;durP2;ratioP2
25175;SDS011;13135;55.166;61.286;2022-07-29T00:02:32;6.30;;;5.00;;
25175;SDS011;13135;55.166;61.286;2022-07-29T00:05:17;11.50;;;5.53;;
25175;SDS011;13135;55.166;61.286;2022-07-29T00:08:01;6.63;;;4.70;;
25175;SDS011;13135;55.166;61.286;2022-07-29T00:10:46;6.78;;;5.25;;
25175;SDS011;13135;55.166;61.286;2022-07-29T00:13:31;8.48;;;5.00;;
25175;SDS011;13135;55.166;61.286;2022-07-29T00:16:16;6.35;;;4.93;;
25175;SDS011;13135;55.166;61.286;2022-07-29T00:19:00;6.57;;;4.78;;
25175;SDS011;13135;55.166;61.286;2022-07-29T00:21:46;8.25;;;5.20;;
25175;SDS011;13135;55.166;61.286;2022-07-29T00:24:31;6.87;;;4.83;;
25175;SDS011;13135;55.166;61.286;2022-07-29T00:27:16;8.15;;;4.78;;
25175;SDS011;13135;55.166;61.286;2022-07-29T00:30:03;8.98;;;5.35;;
25175;SDS011;13135;55.166;61.286;2022-07-29T00:32:49;9.13;;;5.43;;
25175;SDS011;13135;55.166;61.286;2022-07-29T00:35:34;7.12;;;4.97;;
25175;SDS011;13135;55.166;61.286;2022-07-29T00:38:18;6.80;;;4.90;;
25175;SDS011;13135;55.166;61.286;2022-07-29T00:41:03;7.57;;;5.28;;
25175;SDS011;13135;55.166;61.286;2022-07-29T00:43:48;7.50;;;5.62;;
25175;SDS011;13135;55.166;61.286;2022-07-29T00:46:33;7.03;;;5.12;;
25175;SDS011;13135;55.166;61.286;2022-07-29T00:49:18;8.10;;;4.80;;
25175;SDS011;13135;55.166;61.286;2022-07-29T00:52:03;6.05;;;4.90;;
25175;SDS011;13135;55.166;61.286;2022-07-29T00:54:51;6.95;;;5.55;;
25175;SDS011;13135;55.166;61.286;2022-07-29T00:57:37;7.22;;;5.65;;
25175;SDS011;13135;55.166;61.286;2022-07-29T01:00:22;6.50;;;5.15;;
25175;SDS011;13135;55.166;61.286;2022-07-29T01:03:05;7.80;;;5.55;;
25175;SDS011;13135;55.166;61.286;2022-07-29T01:05:51;6.87;;;4.80;;
25175;SDS011;13135;55.166;61.286;2022-07-29T01:08:36;6.22;;;5.22;;
25175;SDS011;13135;55.166;61.286;2022-07-29T01:11:22;7.03;;;4.87;;
25175;SDS011;13135;55.166;61.286;2022-07-29T01:14:10;6.07;;;4.95;;
25175;SDS011;13135;55.166;61.286;2022-07-29T01:16:59;6.07;;;5.18;;
25175;SDS011;13135;55.166;61.286;2022-07-29T01:19:49;7.68;;;4.68;;
25175;SDS011;13135;55.166;61.286;2022-07-29T01:25:58;7.50;;;4.90;;
25175;SDS011;13135;55.166;61.286;2022-07-29T01:31:42;7.15;;;5.50;;
25175;SDS011;13135;55.166;61.286;2022-07-29T01:37:39;7.37;;;5.22;;
25175;SDS011;13135;55.166;61.286;2022-07-29T01:40:27;6.47;;;4.78;;
25175;SDS011;13135;55.166;61.286;2022-07-29T01:43:15;6.78;;;4.40;;
25175;SDS011;13135;55.166;61.286;2022-07-29T01:46:01;5.78;;;4.80;;
25175;SDS011;13135;55.166;61.286;2022-07-29T01:48:45;6.87;;;5.30;;
25175;SDS011;13135;55.166;61.286;2022-07-29T01:51:35;6.07;;;4.97;;
25175;SDS011;13135;55.166;61.286;2022-07-29T01:54:32;7.22;;;4.68;;
25175;SDS011;13135;55.166;61.286;2022-07-29T01:57:26;6.45;;;4.93;;
25175;SDS011;13135;55.166;61.286;2022-07-29T02:00:11;5.97;;;4.45;;
25175;SDS011;13135;55.166;61.286;2022-07-29T02:02:57;6.72;;;4.60;;
25175;SDS011;13135;55.166;61.286;2022-07-29T02:05:43;7.78;;;5.25;;
25175;SDS011;13135;55.166;61.286;2022-07-29T02:08:27;6.53;;;4.93;;
25175;SDS011;13135;55.166;61.286;2022-07-29T02:11:12;6.60;;;5.20;;
25175;SDS011;13135;55.166;61.286;2022-07-29T02:13:56;6.15;;;4.95;;
25175;SDS011;13135;55.166;61.286;2022-07-29T02:16:38;7.07;;;5.25;;
25175;SDS011;13135;55.166;61.286;2022-07-29T02:19:22;5.47;;;4.78;;
25175;SDS011;13135;55.166;61.286;2022-07-29T02:22:07;7.10;;;4.87;;
25175;SDS011;13135;55.166;61.286;2022-07-29T02:24:52;6.35;;;5.03;;
25175;SDS011;13135;55.166;61.286;2022-07-29T02:27:37;7.62;;;4.95;;
25175;SDS011;13135;55.166;61.286;2022-07-29T02:30:22;7.33;;;5.03;;
25175;SDS011;13135;55.166;61.286;2022-07-29T02:33:07;7.03;;;4.50;;
25175;SDS011;13135;55.166;61.286;2022-07-29T02:35:51;8.23;;;5.07;;
25175;SDS011;13135;55.166;61.286;2022-07-29T02:38:37;6.45;;;4.93;;
25175;SDS011;13135;55.166;61.286;2022-07-29T02:41:23;6.53;;;4.87;;
25175;SDS011;13135;55.166;61.286;2022-07-29T02:44:11;6.68;;;4.68;;
25175;SDS011;13135;55.166;61.286;2022-07-29T02:46:58;6.75;;;5.30;;
25175;SDS011;13135;55.166;61.286;2022-07-29T02:49:59;8.50;;;4.90;;
25175;SDS011;13135;55.166;61.286;2022-07-29T02:52:45;6.93;;;5.03;;
25175;SDS011;13135;55.166;61.286;2022-07-29T02:55:30;7.20;;;4.60;;
25175;SDS011;13135;55.166;61.286;2022-07-29T02:58:17;10.45;;;5.30;;
25175;SDS011;13135;55.166;61.286;2022-07-29T03:01:11;7.37;;;4.70;;
25175;SDS011;13135;55.166;61.286;2022-07-29T03:03:52;8.20;;;5.45;;
25175;SDS011;13135;55.166;61.286;2022-07-29T03:06:39;7.00;;;5.30;;
25175;SDS011;13135;55.166;61.286;2022-07-29T03:09:24;7.37;;;4.65;;
25175;SDS011;13135;55.166;61.286;2022-07-29T03:12:08;6.78;;;4.60;;
25175;SDS011;13135;55.166;61.286;2022-07-29T03:14:54;11.30;;;4.90;;
25175;SDS011;13135;55.166;61.286;2022-07-29T03:17:38;8.90;;;4.60;;
25175;SDS011;13135;55.166;61.286;2022-07-29T03:20:22;7.62;;;4.90;;
25175;SDS011;13135;55.166;61.286;2022-07-29T03:23:09;7.93;;;5.80;;
25175;SDS011;13135;55.166;61.286;2022-07-29T03:25:54;8.25;;;5.00;;
25175;SDS011;13135;55.166;61.286;2022-07-29T03:28:38;7.03;;;4.28;;
25175;SDS011;13135;55.166;61.286;2022-07-29T03:31:22;6.82;;;4.75;;
25175;SDS011;13135;55.166;61.286;2022-07-29T03:34:06;7.32;;;4.60;;
25175;SDS011;13135;55.166;61.286;2022-07-29T03:36:52;9.15;;;5.20;;
25175;SDS011;13135;55.166;61.286;2022-07-29T03:39:39;7.93;;;4.05;;
25175;SDS011;13135;55.166;61.286;2022-07-29T03:42:22;6.62;;;4.20;;
25175;SDS011;13135;55.166;61.286;2022-07-29T03:45:10;7.93;;;4.53;;
25175;SDS011;13135;55.166;61.286;2022-07-29T03:47:53;6.15;;;4.15;;
25175;SDS011;13135;55.166;61.286;2022-07-29T03:50:37;5.90;;;4.03;;
25175;SDS011;13135;55.166;61.286;2022-07-29T03:53:22;6.62;;;4.03;;
25175;SDS011;13135;55.166;61.286;2022-07-29T03:56:06;7.90;;;4.03;;
25175;SDS011;13135;55.166;61.286;2022-07-29T03:58:51;7.57;;;4.18;;
25175;SDS011;13135;55.166;61.286;2022-07-29T04:01:35;7.65;;;4.30;;
25175;SDS011;13135;55.166;61.286;2022-07-29T04:04:20;7.22;;;4.35;;
25175;SDS011;13135;55.166;61.286;2022-07-29T04:07:05;6.60;;;4.20;;
25175;SDS011;13135;55.166;61.286;2022-07-29T04:09:50;9.55;;;4.18;;
25175;SDS011;13135;55.166;61.286;2022-07-29T04:12:35;9.13;;;4.82;;
25175;SDS011;13135;55.166;61.286;2022-07-29T04:15:21;6.93;;;3.62;;
25175;SDS011;13135;55.166;61.286;2022-07-29T04:18:06;6.72;;;3.87;;
25175;SDS011;13135;55.166;61.286;2022-07-29T04:20:50;7.20;;;3.70;;
25175;SDS011;13135;55.166;61.286;2022-07-29T04:23:35;6.47;;;3.92;;
25175;SDS011;13135;55.166;61.286;2022-07-29T04:26:20;5.22;;;4.12;;
25175;SDS011;13135;55.166;61.286;2022-07-29T04:29:05;5.87;;;4.28;;
25175;SDS011;13135;55.166;61.286;2022-07-29T04:31:50;8.23;;;4.30;;
25175;SDS011;13135;55.166;61.286;2022-07-29T04:34:35;4.85;;;3.78;;
25175;SDS011;13135;55.166;61.286;2022-07-29T04:37:19;6.82;;;4.05;;
25175;SDS011;13135;55.166;61.286;2022-07-29T04:40:04;5.70;;;4.00;;
25175;SDS011;13135;55.166;61.286;2022-07-29T04:42:49;7.62;;;4.10;;
25175;SDS011;13135;55.166;61.286;2022-07-29T04:45:34;5.95;;;3.60;;
25175;SDS011;13135;55.166;61.286;2022-07-29T04:48:19;7.90;;;3.62;;
25175;SDS011;13135;55.166;61.286;2022-07-29T04:51:03;4.37;;;3.58;;
25175;SDS011;13135;55.166;61.286;2022-07-29T04:53:48;5.55;;;3.85;;
25175;SDS011;13135;55.166;61.286;2022-07-29T04:56:35;7.53;;;4.03;;
25175;SDS011;13135;55.166;61.286;2022-07-29T04:59:22;9.57;;;5.45;;
25175;SDS011;13135;55.166;61.286;2022-07-29T05:02:06;6.40;;;3.55;;
25175;SDS011;13135;55.166;61.286;2022-07-29T05:04:50;6.43;;;3.60;;
25175;SDS011;13135;55.166;61.286;2022-07-29T05:07:34;5.72;;;3.97;;
25175;SDS011;13135;55.166;61.286;2022-07-29T05:10:19;4.85;;;3.12;;
25175;SDS011;13135;55.166;61.286;2022-07-29T05:13:05;5.82;;;3.42;;
25175;SDS011;13135;55.166;61.286;2022-07-29T05:15:50;5.07;;;3.30;;
25175;SDS011;13135;55.166;61.286;2022-07-29T05:18:34;5.70;;;3.10;;
25175;SDS011;13135;55.166;61.286;2022-07-29T05:21:19;4.20;;;3.28;;
25175;SDS011;13135;55.166;61.286;2022-07-29T05:24:05;4.05;;;2.97;;
25175;SDS011;13135;55.166;61.286;2022-07-29T05:26:51;5.37;;;2.70;;
25175;SDS011;13135;55.166;61.286;2022-07-29T05:29:35;5.00;;;2.90;;
25175;SDS011;13135;55.166;61.286;2022-07-29T05:32:19;3.72;;;2.53;;
25175;SDS011;13135;55.166;61.286;2022-07-29T05:35:05;4.15;;;2.62;;
25175;SDS011;13135;55.166;61.286;2022-07-29T05:37:51;3.53;;;2.53;;
25175;SDS011;13135;55.166;61.286;2022-07-29T05:40:36;2.92;;;2.20;;
25175;SDS011;13135;55.166;61.286;2022-07-29T05:43:21;4.25;;;2.20;;
25175;SDS011;13135;55.166;61.286;2022-07-29T05:46:06;2.80;;;2.20;;
25175;SDS011;13135;55.166;61.286;2022-07-29T05:48:51;2.58;;;2.30;;
25175;SDS011;13135;55.166;61.286;2022-07-29T05:51:36;4.30;;;2.58;;
25175;SDS011;13135;55.166;61.286;2022-07-29T05:54:28;2.75;;;2.37;;
25175;SDS011;13135;55.166;61.286;2022-07-29T06:00:01;4.45;;;2.58;;
25175;SDS011;13135;55.166;61.286;2022-07-29T06:02:46;5.03;;;2.60;;
25175;SDS011;13135;55.166;61.286;2022-07-29T06:05:33;4.68;;;3.30;;
25175;SDS011;13135;55.166;61.286;2022-07-29T06:08:18;6.05;;;2.33;;
25175;SDS011;13135;55.166;61.286;2022-07-29T06:11:02;4.87;;;2.30;;
25175;SDS011;13135;55.166;61.286;2022-07-29T06:13:47;2.97;;;2.00;;
25175;SDS011;13135;55.166;61.286;2022-07-29T06:16:32;4.53;;;2.40;;
25175;SDS011;13135;55.166;61.286;2022-07-29T06:19:16;2.40;;;1.85;;
25175;SDS011;13135;55.166;61.286;2022-07-29T06:22:01;3.12;;;2.28;;
25175;SDS011;13135;55.166;61.286;2022-07-29T06:24:46;3.60;;;2.17;;
25175;SDS011;13135;55.166;61.286;2022-07-29T06:27:31;2.20;;;1.85;;
25175;SDS011;13135;55.166;61.286;2022-07-29T06:30:14;4.43;;;2.15;;
25175;SDS011;13135;55.166;61.286;2022-07-29T06:32:59;5.60;;;2.25;;
25175;SDS011;13135;55.166;61.286;2022-07-29T06:35:44;3.45;;;2.20;;
25175;SDS011;13135;55.166;61.286;2022-07-29T06:38:26;3.47;;;2.03;;
25175;SDS011;13135;55.166;61.286;2022-07-29T06:41:09;4.32;;;2.12;;
25175;SDS011;13135;55.166;61.286;2022-07-29T06:43:53;4.12;;;2.40;;
25175;SDS011;13135;55.166;61.286;2022-07-29T06:46:38;2.62;;;2.22;;
25175;SDS011;13135;55.166;61.286;2022-07-29T06:49:22;2.97;;;2.20;;
25175;SDS011;13135;55.166;61.286;2022-07-29T06:52:07;3.25;;;2.00;;
25175;SDS011;13135;55.166;61.286;2022-07-29T06:54:52;3.60;;;2.37;;
25175;SDS011;13135;55.166;61.286;2022-07-29T06:57:38;3.10;;;2.28;;
25175;SDS011;13135;55.166;61.286;2022-07-29T07:00:23;2.37;;;2.08;;
25175;SDS011;13135;55.166;61.286;2022-07-29T07:03:08;3.30;;;2.30;;
25175;SDS011;13135;55.166;61.286;2022-07-29T07:05:53;2.95;;;2.20;;
25175;SDS011;13135;55.166;61.286;2022-07-29T07:08:37;2.53;;;2.17;;
25175;SDS011;13135;55.166;61.286;2022-07-29T07:11:22;2.75;;;2.25;;
25175;SDS011;13135;55.166;61.286;2022-07-29T07:14:06;3.22;;;2.50;;
25175;SDS011;13135;55.166;61.286;2022-07-29T07:16:49;7.45;;;5.28;;
25175;SDS011;13135;55.166;61.286;2022-07-29T07:19:34;2.25;;;2.05;;
25175;SDS011;13135;55.166;61.286;2022-07-29T07:22:19;3.30;;;2.10;;
25175;SDS011;13135;55.166;61.286;2022-07-29T07:25:06;2.97;;;2.40;;
25175;SDS011;13135;55.166;61.286;2022-07-29T07:27:52;4.05;;;2.40;;
25175;SDS011;13135;55.166;61.286;2022-07-29T07:30:37;4.57;;;2.28;;
25175;SDS011;13135;55.166;61.286;2022-07-29T07:33:22;2.50;;;2.20;;
25175;SDS011;13135;55.166;61.286;2022-07-29T07:36:13;4.07;;;2.22;;
25175;SDS011;13135;55.166;61.286;2022-07-29T07:39:00;7.90;;;5.95;;
25175;SDS011;13135;55.166;61.286;2022-07-29T07:41:47;2.70;;;2.00;;
25175;SDS011;13135;55.166;61.286;2022-07-29T07:44:32;3.17;;;2.50;;
25175;SDS011;13135;55.166;61.286;2022-07-29T07:47:18;3.80;;;3.00;;
25175;SDS011;13135;55.166;61.286;2022-07-29T07:50:05;4.85;;;2.60;;
25175;SDS011;13135;55.166;61.286;2022-07-29T07:52:51;3.15;;;2.40;;
25175;SDS011;13135;55.166;61.286;2022-07-29T07:55:40;2.75;;;2.42;;
25175;SDS011;13135;55.166;61.286;2022-07-29T07:58:24;3.90;;;2.40;;
25175;SDS011;13135;55.166;61.286;2022-07-29T08:01:10;3.03;;;2.65;;
25175;SDS011;13135;55.166;61.286;2022-07-29T08:03:54;2.83;;;2.60;;
25175;SDS011;13135;55.166;61.286;2022-07-29T08:06:41;3.35;;;2.65;;
25175;SDS011;13135;55.166;61.286;2022-07-29T08:09:25;5.45;;;2.60;;
25175;SDS011;13135;55.166;61.286;2022-07-29T08:12:16;2.92;;;2.40;;
25175;SDS011;13135;55.166;61.286;2022-07-29T08:15:02;3.85;;;2.60;;
25175;SDS011;13135;55.166;61.286;2022-07-29T08:17:48;4.03;;;2.80;;
25175;SDS011;13135;55.166;61.286;2022-07-29T08:20:33;5.05;;;2.30;;
25175;SDS011;13135;55.166;61.286;2022-07-29T08:23:19;4.18;;;2.78;;
25175;SDS011;13135;55.166;61.286;2022-07-29T08:26:06;2.50;;;2.30;;
25175;SDS011;13135;55.166;61.286;2022-07-29T08:28:51;2.92;;;2.40;;
25175;SDS011;13135;55.166;61.286;2022-07-29T08:31:36;3.40;;;2.90;;
25175;SDS011;13135;55.166;61.286;2022-07-29T08:34:26;3.35;;;2.87;;
25175;SDS011;13135;55.166;61.286;2022-07-29T08:37:11;5.30;;;2.80;;
25175;SDS011;13135;55.166;61.286;2022-07-29T08:39:56;3.33;;;3.03;;
25175;SDS011;13135;55.166;61.286;2022-07-29T08:42:41;6.25;;;2.92;;
25175;SDS011;13135;55.166;61.286;2022-07-29T08:45:25;3.08;;;2.30;;
25175;SDS011;13135;55.166;61.286;2022-07-29T08:48:13;5.35;;;2.45;;
25175;SDS011;13135;55.166;61.286;2022-07-29T08:50:58;2.92;;;2.60;;
25175;SDS011;13135;55.166;61.286;2022-07-29T08:53:43;8.13;;;4.20;;
25175;SDS011;13135;55.166;61.286;2022-07-29T08:56:29;6.05;;;2.72;;
25175;SDS011;13135;55.166;61.286;2022-07-29T08:59:14;3.28;;;2.55;;
25175;SDS011;13135;55.166;61.286;2022-07-29T09:01:58;4.18;;;2.60;;
25175;SDS011;13135;55.166;61.286;2022-07-29T09:04:42;4.53;;;2.75;;
25175;SDS011;13135;55.166;61.286;2022-07-29T09:07:27;3.47;;;2.45;;
25175;SDS011;13135;55.166;61.286;2022-07-29T09:10:18;3.80;;;2.62;;
25175;SDS011;13135;55.166;61.286;2022-07-29T09:13:03;2.30;;;2.05;;
25175;SDS011;13135;55.166;61.286;2022-07-29T09:15:48;3.20;;;2.25;;
25175;SDS011;13135;55.166;61.286;2022-07-29T09:18:37;4.00;;;2.30;;
25175;SDS011;13135;55.166;61.286;2022-07-29T09:21:24;3.85;;;2.17;;
25175;SDS011;13135;55.166;61.286;2022-07-29T09:24:10;2.78;;;2.53;;
25175;SDS011;13135;55.166;61.286;2022-07-29T09:26:56;2.95;;;2.40;;
25175;SDS011;13135;55.166;61.286;2022-07-29T09:29:41;3.72;;;2.65;;
25175;SDS011;13135;55.166;61.286;2022-07-29T09:32:26;2.47;;;2.28;;
25175;SDS011;13135;55.166;61.286;2022-07-29T09:35:17;5.30;;;3.37;;
25175;SDS011;13135;55.166;61.286;2022-07-29T09:38:09;4.15;;;2.62;;
25175;SDS011;13135;55.166;61.286;2022-07-29T09:40:56;3.53;;;2.83;;
25175;SDS011;13135;55.166;61.286;2022-07-29T09:43:40;3.53;;;2.35;;
25175;SDS011;13135;55.166;61.286;2022-07-29T09:46:25;3.35;;;2.35;;
25175;SDS011;13135;55.166;61.286;2022-07-29T09:49:20;3.83;;;2.40;;
25175;SDS011;13135;55.166;61.286;2022-07-29T09:52:06;2.70;;;2.25;;
25175;SDS011;13135;55.166;61.286;2022-07-29T09:54:51;2.58;;;2.37;;
25175;SDS011;13135;55.166;61.286;2022-07-29T09:57:36;12.43;;;3.05;;
25175;SDS011;13135;55.166;61.286;2022-07-29T10:00:22;4.93;;;2.87;;
25175;SDS011;13135;55.166;61.286;2022-07-29T10:03:06;3.78;;;2.40;;
25175;SDS011;13135;55.166;61.286;2022-07-29T10:08:48;3.83;;;2.20;;
25175;SDS011;13135;55.166;61.286;2022-07-29T10:11:33;3.95;;;2.22;;
25175;SDS011;13135;55.166;61.286;2022-07-29T10:14:18;3.17;;;2.28;;
25175;SDS011;13135;55.166;61.286;2022-07-29T10:17:00;2.50;;;2.30;;
25175;SDS011;13135;55.166;61.286;2022-07-29T10:19:46;4.30;;;2.60;;
25175;SDS011;13135;55.166;61.286;2022-07-29T10:22:27;9.82;;;3.30;;
25175;SDS011;13135;55.166;61.286;2022-07-29T10:25:12;4.57;;;2.55;;
25175;SDS011;13135;55.166;61.286;2022-07-29T10:27:56;3.28;;;2.55;;
25175;SDS011;13135;55.166;61.286;2022-07-29T10:30:42;6.68;;;2.83;;
25175;SDS011;13135;55.166;61.286;2022-07-29T10:39:49;3.60;;;2.58;;
25175;SDS011;13135;55.166;61.286;2022-07-29T10:42:34;2.62;;;2.40;;
25175;SDS011;13135;55.166;61.286;2022-07-29T10:45:19;5.07;;;2.10;;
25175;SDS011;13135;55.166;61.286;2022-07-29T10:48:03;5.87;;;3.33;;
25175;SDS011;13135;55.166;61.286;2022-07-29T10:50:59;2.30;;;2.00;;
25175;SDS011;13135;55.166;61.286;2022-07-29T10:53:47;2.95;;;1.87;;
25175;SDS011;13135;55.166;61.286;2022-07-29T10:56:30;3.42;;;2.10;;
25175;SDS011;13135;55.166;61.286;2022-07-29T10:59:25;3.35;;;2.00;;
25175;SDS011;13135;55.166;61.286;2022-07-29T11:05:06;2.62;;;2.00;;
25175;SDS011;13135;55.166;61.286;2022-07-29T11:10:49;4.57;;;2.35;;
25175;SDS011;13135;55.166;61.286;2022-07-29T11:16:57;2.60;;;1.70;;
25175;SDS011;13135;55.166;61.286;2022-07-29T11:19:28;3.60;;;1.90;;
25175;SDS011;13135;55.166;61.286;2022-07-29T11:22:30;5.05;;;3.20;;
25175;SDS011;13135;55.166;61.286;2022-07-29T11:28:08;2.62;;;1.70;;
25175;SDS011;13135;55.166;61.286;2022-07-29T11:30:49;2.97;;;1.77;;
25175;SDS011;13135;55.166;61.286;2022-07-29T11:33:34;3.10;;;2.65;;
25175;SDS011;13135;55.166;61.286;2022-07-29T11:36:19;2.83;;;2.00;;
25175;SDS011;13135;55.166;61.286;2022-07-29T11:45:23;1.80;;;1.60;;
25175;SDS011;13135;55.166;61.286;2022-07-29T11:48:07;3.97;;;2.08;;
25175;SDS011;13135;55.166;61.286;2022-07-29T11:50:52;5.15;;;1.87;;
25175;SDS011;13135;55.166;61.286;2022-07-29T11:53:39;2.05;;;1.83;;
25175;SDS011;13135;55.166;61.286;2022-07-29T11:56:31;2.60;;;1.75;;
25175;SDS011;13135;55.166;61.286;2022-07-29T11:59:16;3.80;;;2.10;;
25175;SDS011;13135;55.166;61.286;2022-07-29T12:02:00;4.62;;;1.80;;
25175;SDS011;13135;55.166;61.286;2022-07-29T12:04:51;3.42;;;1.62;;
25175;SDS011;13135;55.166;61.286;2022-07-29T12:07:35;2.20;;;1.50;;
25175;SDS011;13135;55.166;61.286;2022-07-29T12:10:20;2.60;;;1.80;;
25175;SDS011;13135;55.166;61.286;2022-07-29T12:13:05;2.42;;;1.80;;
25175;SDS011;13135;55.166;61.286;2022-07-29T12:15:53;4.12;;;2.10;;
25175;SDS011;13135;55.166;61.286;2022-07-29T12:18:39;1.77;;;1.52;;
25175;SDS011;13135;55.166;61.286;2022-07-29T12:21:24;3.65;;;1.80;;
25175;SDS011;13135;55.166;61.286;2022-07-29T12:24:09;3.97;;;2.10;;
25175;SDS011;13135;55.166;61.286;2022-07-29T12:26:55;2.78;;;1.52;;
25175;SDS011;13135;55.166;61.286;2022-07-29T12:29:39;3.28;;;1.60;;
25175;SDS011;13135;55.166;61.286;2022-07-29T12:32:23;6.47;;;2.83;;
25175;SDS011;13135;55.166;61.286;2022-07-29T12:35:06;2.53;;;1.65;;
25175;SDS011;13135;55.166;61.286;2022-07-29T12:37:52;3.40;;;1.90;;
25175;SDS011;13135;55.166;61.286;2022-07-29T12:40:37;3.25;;;1.73;;
25175;SDS011;13135;55.166;61.286;2022-07-29T12:43:22;2.97;;;1.52;;
25175;SDS011;13135;55.166;61.286;2022-07-29T12:46:12;2.85;;;1.70;;
25175;SDS011;13135;55.166;61.286;2022-07-29T12:48:56;3.47;;;1.75;;
25175;SDS011;13135;55.166;61.286;2022-07-29T12:51:39;2.10;;;1.70;;
25175;SDS011;13135;55.166;61.286;2022-07-29T12:54:22;3.37;;;2.00;;
25175;SDS011;13135;55.166;61.286;2022-07-29T12:57:09;1.67;;;1.40;;
25175;SDS011;13135;55.166;61.286;2022-07-29T13:02:44;4.03;;;1.90;;
25175;SDS011;13135;55.166;61.286;2022-07-29T13:08:23;3.80;;;2.05;;
25175;SDS011;13135;55.166;61.286;2022-07-29T13:11:26;2.87;;;2.17;;
25175;SDS011;13135;55.166;61.286;2022-07-29T13:13:54;3.37;;;2.15;;
25175;SDS011;13135;55.166;61.286;2022-07-29T13:19:38;5.35;;;2.10;;
25175;SDS011;13135;55.166;61.286;2022-07-29T13:22:24;3.15;;;2.37;;
25175;SDS011;13135;55.166;61.286;2022-07-29T13:25:08;5.00;;;2.35;;
25175;SDS011;13135;55.166;61.286;2022-07-29T13:27:49;3.75;;;2.70;;
25175;SDS011;13135;55.166;61.286;2022-07-29T13:30:34;3.87;;;2.05;;
25175;SDS011;13135;55.166;61.286;2022-07-29T13:33:19;3.53;;;2.10;;
25175;SDS011;13135;55.166;61.286;2022-07-29T13:36:07;3.87;;;2.20;;
25175;SDS011;13135;55.166;61.286;2022-07-29T13:38:53;3.62;;;2.20;;
25175;SDS011;13135;55.166;61.286;2022-07-29T13:41:35;4.75;;;2.22;;
25175;SDS011;13135;55.166;61.286;2022-07-29T13:44:20;3.10;;;1.95;;
25175;SDS011;13135;55.166;61.286;2022-07-29T13:47:02;2.45;;;1.95;;
25175;SDS011;13135;55.166;61.286;2022-07-29T13:49:48;2.70;;;2.20;;
25175;SDS011;13135;55.166;61.286;2022-07-29T13:52:33;4.68;;;2.35;;
25175;SDS011;13135;55.166;61.286;2022-07-29T13:55:18;3.42;;;2.40;;
25175;SDS011;13135;55.166;61.286;2022-07-29T13:58:02;5.15;;;2.05;;
25175;SDS011;13135;55.166;61.286;2022-07-29T14:00:43;2.35;;;1.98;;
25175;SDS011;13135;55.166;61.286;2022-07-29T14:03:29;2.47;;;2.20;;
25175;SDS011;13135;55.166;61.286;2022-07-29T14:06:14;3.45;;;2.45;;
25175;SDS011;13135;55.166;61.286;2022-07-29T14:09:02;3.60;;;2.30;;
25175;SDS011;13135;55.166;61.286;2022-07-29T14:11:47;4.82;;;2.40;;
25175;SDS011;13135;55.166;61.286;2022-07-29T14:14:32;4.28;;;2.62;;
25175;SDS011;13135;55.166;61.286;2022-07-29T14:17:17;3.10;;;2.22;;
25175;SDS011;13135;55.166;61.286;2022-07-29T14:20:03;4.05;;;2.30;;
25175;SDS011;13135;55.166;61.286;2022-07-29T14:22:44;3.85;;;2.20;;
25175;SDS011;13135;55.166;61.286;2022-07-29T14:25:28;2.92;;;2.00;;
25175;SDS011;13135;55.166;61.286;2022-07-29T14:28:12;3.78;;;2.15;;
25175;SDS011;13135;55.166;61.286;2022-07-29T14:30:57;4.35;;;2.92;;
25175;SDS011;13135;55.166;61.286;2022-07-29T14:33:42;7.75;;;5.28;;
25175;SDS011;13135;55.166;61.286;2022-07-29T14:36:26;3.45;;;2.50;;
25175;SDS011;13135;55.166;61.286;2022-07-29T14:39:11;3.53;;;2.42;;
25175;SDS011;13135;55.166;61.286;2022-07-29T14:41:56;3.58;;;2.10;;
25175;SDS011;13135;55.166;61.286;2022-07-29T14:44:40;2.50;;;2.30;;
25175;SDS011;13135;55.166;61.286;2022-07-29T14:47:25;2.53;;;2.05;;
25175;SDS011;13135;55.166;61.286;2022-07-29T14:50:11;2.40;;;2.20;;
25175;SDS011;13135;55.166;61.286;2022-07-29T14:52:56;3.97;;;2.20;;
25175;SDS011;13135;55.166;61.286;2022-07-29T14:55:40;4.87;;;2.30;;
25175;SDS011;13135;55.166;61.286;2022-07-29T14:58:25;4.85;;;2.35;;
25175;SDS011;13135;55.166;61.286;2022-07-29T15:01:10;3.30;;;2.60;;
25175;SDS011;13135;55.166;61.286;2022-07-29T15:03:55;2.95;;;2.12;;
25175;SDS011;13135;55.166;61.286;2022-07-29T15:06:40;2.30;;;2.10;;
25175;SDS011;13135;55.166;61.286;2022-07-29T15:09:26;4.00;;;2.25;;
25175;SDS011;13135;55.166;61.286;2022-07-29T15:12:11;4.25;;;2.40;;
25175;SDS011;13135;55.166;61.286;2022-07-29T15:14:56;4.40;;;2.50;;
25175;SDS011;13135;55.166;61.286;2022-07-29T15:17:41;3.67;;;2.70;;
25175;SDS011;13135;55.166;61.286;2022-07-29T15:20:24;3.80;;;2.50;;
25175;SDS011;13135;55.166;61.286;2022-07-29T15:23:09;5.53;;;2.60;;
25175;SDS011;13135;55.166;61.286;2022-07-29T15:25:53;5.10;;;3.28;;
25175;SDS011;13135;55.166;61.286;2022-07-29T15:28:38;3.08;;;2.28;;
25175;SDS011;13135;55.166;61.286;2022-07-29T15:31:21;3.90;;;2.30;;
25175;SDS011;13135;55.166;61.286;2022-07-29T15:34:06;3.10;;;2.53;;
25175;SDS011;13135;55.166;61.286;2022-07-29T15:36:50;3.33;;;2.67;;
25175;SDS011;13135;55.166;61.286;2022-07-29T15:39:35;3.35;;;2.35;;
25175;SDS011;13135;55.166;61.286;2022-07-29T15:42:21;4.30;;;2.42;;
25175;SDS011;13135;55.166;61.286;2022-07-29T15:45:06;3.78;;;2.50;;
25175;SDS011;13135;55.166;61.286;2022-07-29T15:47:52;3.03;;;2.28;;
25175;SDS011;13135;55.166;61.286;2022-07-29T15:50:36;4.55;;;2.30;;
25175;SDS011;13135;55.166;61.286;2022-07-29T15:53:21;5.55;;;2.80;;
25175;SDS011;13135;55.166;61.286;2022-07-29T15:56:09;4.60;;;2.70;;
25175;SDS011;13135;55.166;61.286;2022-07-29T15:58:55;4.22;;;2.30;;
25175;SDS011;13135;55.166;61.286;2022-07-29T16:01:40;3.62;;;2.47;;
25175;SDS011;13135;55.166;61.286;2022-07-29T16:04:27;4.95;;;2.65;;
25175;SDS011;13135;55.166;61.286;2022-07-29T16:07:14;3.65;;;2.47;;
25175;SDS011;13135;55.166;61.286;2022-07-29T16:09:59;3.28;;;2.65;;
25175;SDS011;13135;55.166;61.286;2022-07-29T16:12:44;4.47;;;3.28;;
25175;SDS011;13135;55.166;61.286;2022-07-29T16:15:29;5.50;;;2.30;;
25175;SDS011;13135;55.166;61.286;2022-07-29T16:18:14;4.12;;;2.97;;
25175;SDS011;13135;55.166;61.286;2022-07-29T16:20:58;3.08;;;2.60;;
25175;SDS011;13135;55.166;61.286;2022-07-29T16:23:42;4.07;;;3.05;;
25175;SDS011;13135;55.166;61.286;2022-07-29T16:26:37;4.05;;;2.08;;
25175;SDS011;13135;55.166;61.286;2022-07-29T16:29:22;4.97;;;2.40;;
25175;SDS011;13135;55.166;61.286;2022-07-29T16:32:07;3.53;;;2.22;;
25175;SDS011;13135;55.166;61.286;2022-07-29T16:34:53;2.97;;;2.55;;
25175;SDS011;13135;55.166;61.286;2022-07-29T16:37:38;4.65;;;2.55;;
25175;SDS011;13135;55.166;61.286;2022-07-29T16:40:23;4.43;;;2.80;;
25175;SDS011;13135;55.166;61.286;2022-07-29T16:43:08;3.50;;;2.50;;
25175;SDS011;13135;55.166;61.286;2022-07-29T16:45:53;4.53;;;2.50;;
25175;SDS011;13135;55.166;61.286;2022-07-29T16:48:38;4.00;;;2.53;;
25175;SDS011;13135;55.166;61.286;2022-07-29T16:51:20;3.12;;;2.35;;
25175;SDS011;13135;55.166;61.286;2022-07-29T16:54:05;5.68;;;3.75;;
25175;SDS011;13135;55.166;61.286;2022-07-29T16:56:50;5.60;;;2.70;;
25175;SDS011;13135;55.166;61.286;2022-07-29T16:59:34;2.92;;;2.30;;
25175;SDS011;13135;55.166;61.286;2022-07-29T17:02:19;5.28;;;2.95;;
25175;SDS011;13135;55.166;61.286;2022-07-29T17:05:03;4.18;;;2.70;;
25175;SDS011;13135;55.166;61.286;2022-07-29T17:07:49;3.12;;;2.65;;
25175;SDS011;13135;55.166;61.286;2022-07-29T17:10:33;5.45;;;2.45;;